Time;durP1;ratioP1;P1;durP2;ratioP2;P2;SDS_P1;SDS_P2;PMS_P1;PMS_P2;Temp;Humidity;BMP_temperature;BMP_pressure;BME280_temperature;BME280_humidity;BME280_pressure;Samples;Min_cycle;Max_cycle;Signal;HPM_P1;HPM_P2
2022/06/03 00:01:07;;;;;;;1.70;0.80;;;15.10;58.40;;;;;;4787127;29;20097;-80
2022/06/03 00:03:46;;;;;;;1.90;1.10;;;15.00;58.50;;;;;;4787055;30;20465;-80
2022/06/03 00:06:39;;;;;;;1.38;0.70;;;15.10;58.70;;;;;;4786587;30;20051;-80
2022/06/03 00:09:18;;;;;;;1.25;0.60;;;15.00;58.80;;;;;;4775551;29;20082;-80
2022/06/03 00:11:58;;;;;;;1.55;0.98;;;14.90;59.10;;;;;;4786922;29;20055;-80
2022/06/03 00:14:52;;;;;;;2.40;0.82;;;14.90;59.30;;;;;;4797380;29;20051;-79
2022/06/03 00:17:25;;;;;;;1.67;0.70;;;14.90;59.40;;;;;;4785515;29;20120;-80
2022/06/03 00:20:22;;;;;;;1.15;0.70;;;14.90;59.60;;;;;;4786607;29;20114;-80
2022/06/03 00:23:27;;;;;;;1.75;0.90;;;14.90;59.70;;;;;;4776040;30;20047;-80
2022/06/03 00:26:18;;;;;;;2.83;0.80;;;14.80;59.90;;;;;;4787347;29;20100;-80
2022/06/03 00:29:18;;;;;;;2.28;0.63;;;14.80;60.00;;;;;;4802631;29;20055;-87
2022/06/03 00:32:17;;;;;;;1.25;0.70;;;14.70;60.10;;;;;;4772577;30;20142;-87
2022/06/03 00:34:50;;;;;;;0.98;0.50;;;14.70;60.30;;;;;;4787365;29;20395;-86
2022/06/03 00:37:31;;;;;;;1.58;0.73;;;14.70;60.30;;;;;;4787702;30;20460;-87
2022/06/03 00:40:28;;;;;;;1.42;0.82;;;14.70;60.50;;;;;;4787510;29;20484;-87
2022/06/03 00:43:28;;;;;;;3.15;0.73;;;14.70;60.70;;;;;;4778771;30;20043;-87
2022/06/03 00:46:46;;;;;;;2.67;0.82;;;14.70;60.80;;;;;;4793511;29;20055;-87
2022/06/03 00:49:40;;;;;;;1.60;0.68;;;14.60;60.90;;;;;;4771711;29;20108;-86
2022/06/03 00:52:22;;;;;;;2.72;0.75;;;14.60;61.10;;;;;;4795720;29;20059;-86
2022/06/03 00:55:02;;;;;;;1.65;0.73;;;14.60;61.30;;;;;;4791617;29;20055;-87
2022/06/03 00:57:39;;;;;;;1.35;0.68;;;14.50;61.40;;;;;;4795391;29;20098;-87
2022/06/03 01:00:21;;;;;;;1.58;0.70;;;14.50;61.40;;;;;;4804780;29;20526;-88
2022/06/03 01:02:51;;;;;;;1.50;0.50;;;14.50;61.60;;;;;;4810593;29;20406;-87
2022/06/03 01:05:47;;;;;;;1.38;0.70;;;14.50;61.70;;;;;;4787038;30;20074;-86
2022/06/03 01:08:36;;;;;;;1.42;0.60;;;14.50;61.90;;;;;;4777400;30;20055;-87
2022/06/03 01:11:41;;;;;;;2.40;0.63;;;14.50;62.00;;;;;;4787205;30;20520;-86
2022/06/03 01:14:35;;;;;;;1.38;0.70;;;14.50;62.10;;;;;;4792767;29;20047;-87
2022/06/03 01:17:13;;;;;;;1.60;0.57;;;14.40;62.20;;;;;;4797223;29;20119;-87
2022/06/03 01:20:15;;;;;;;1.00;0.50;;;14.40;62.30;;;;;;4786020;30;20498;-86
2022/06/03 01:22:59;;;;;;;1.60;0.70;;;14.40;62.40;;;;;;4757731;30;20056;-86
2022/06/03 01:25:38;;;;;;;1.20;0.70;;;14.40;62.50;;;;;;4798110;29;20448;-87
2022/06/03 01:28:30;;;;;;;1.75;0.60;;;14.30;62.50;;;;;;4772028;30;20403;-87
2022/06/03 01:31:37;;;;;;;1.58;0.70;;;14.30;62.70;;;;;;4786387;29;20074;-80
2022/06/03 01:34:32;;;;;;;1.27;0.63;;;14.30;62.80;;;;;;4785735;30;20589;-80
2022/06/03 01:37:27;;;;;;;1.33;0.60;;;14.30;62.90;;;;;;4785773;30;20154;-80
2022/06/03 01:40:13;;;;;;;2.05;0.50;;;14.30;63.10;;;;;;4799332;29;20051;-80
2022/06/03 01:42:50;;;;;;;1.35;0.75;;;14.30;63.10;;;;;;4800693;29;20055;-80
2022/06/03 01:45:42;;;;;;;1.80;0.88;;;14.30;63.20;;;;;;4797392;29;20490;-79
2022/06/03 01:48:30;;;;;;;1.70;0.47;;;14.30;63.20;;;;;;4797292;29;20108;-79
2022/06/03 01:51:15;;;;;;;1.45;0.50;;;14.30;63.30;;;;;;4784688;29;20067;-80
2022/06/03 01:54:14;;;;;;;1.35;0.70;;;14.30;63.30;;;;;;4798596;29;20047;-79
2022/06/03 01:57:11;;;;;;;1.23;0.68;;;14.30;63.30;;;;;;4788718;29;20051;-80
2022/06/03 01:59:38;;;;;;;1.75;0.75;;;14.30;63.40;;;;;;4795173;29;20084;-80
2022/06/03 02:02:37;;;;;;;1.30;0.70;;;14.30;63.50;;;;;;4788767;30;20138;-80
2022/06/03 02:05:22;;;;;;;2.50;0.80;;;14.30;63.70;;;;;;4789156;29;20150;-80
2022/06/03 02:08:15;;;;;;;2.55;1.05;;;14.30;63.80;;;;;;4789040;30;20100;-80
2022/06/03 02:11:00;;;;;;;;;;;14.30;63.90;;;;;;4804736;29;20375;-80
2022/06/03 02:14:00;;;;;;;5.68;0.93;;;14.30;63.80;;;;;;4788967;30;20452;-80
2022/06/03 02:16:43;;;;;;;2.20;0.90;;;14.20;63.80;;;;;;4796451;29;20090;-80
2022/06/03 02:19:48;;;;;;;3.70;0.90;;;14.20;64.00;;;;;;4788703;30;20055;-79
2022/06/03 02:22:15;;;;;;;1.85;0.70;;;14.20;64.00;;;;;;4786173;29;20521;-79
2022/06/03 02:25:06;;;;;;;1.40;0.77;;;14.20;64.10;;;;;;4798600;29;20486;-80
2022/06/03 02:27:52;;;;;;;1.15;0.70;;;14.30;64.10;;;;;;4789025;30;20534;-79
2022/06/03 02:30:51;;;;;;;1.95;0.90;;;14.30;64.10;;;;;;4794575;29;20118;-80
2022/06/03 02:33:36;;;;;;;1.48;0.80;;;14.30;64.10;;;;;;4803577;29;20055;-79
2022/06/03 02:36:39;;;;;;;1.17;0.60;;;14.30;64.10;;;;;;4793465;29;20051;-80
2022/06/03 02:39:24;;;;;;;2.35;0.75;;;14.30;64.10;;;;;;4798346;29;20044;-80
2022/06/03 02:42:09;;;;;;;1.35;0.70;;;14.30;64.10;;;;;;4795929;29;20055;-79
2022/06/03 02:45:05;;;;;;;2.72;0.98;;;14.30;64.10;;;;;;4806941;29;20062;-79
2022/06/03 02:48:01;;;;;;;2.72;0.80;;;14.40;64.20;;;;;;4786627;29;20059;-79
2022/06/03 02:50:40;;;;;;;1.63;0.85;;;14.40;64.20;;;;;;4807339;29;20486;-79
2022/06/03 02:53:19;;;;;;;1.63;0.77;;;14.40;64.20;;;;;;4773380;30;20571;-79
2022/06/03 02:56:09;;;;;;;1.45;0.70;;;14.40;64.20;;;;;;4788200;30;20088;-79
2022/06/03 02:58:39;;;;;;;2.08;0.88;;;14.40;64.10;;;;;;4789558;29;20055;-80
2022/06/03 03:01:25;;;;;;;1.30;0.70;;;14.40;64.30;;;;;;4788308;30;20047;-79
2022/06/03 03:04:17;;;;;;;2.33;0.73;;;14.40;64.30;;;;;;4788198;29;20051;-79
2022/06/03 03:07:04;;;;;;;;;;;14.40;64.20;;;;;;4802767;29;20062;-79
2022/06/03 03:09:39;;;;;;;1.27;0.50;;;14.30;64.20;;;;;;4799428;29;19961;-79
2022/06/03 03:12:35;;;;;;;1.15;0.60;;;14.30;64.30;;;;;;4789494;29;20075;-79
2022/06/03 03:15:34;;;;;;;1.77;0.85;;;14.30;64.30;;;;;;4797066;29;20123;-79
2022/06/03 03:18:20;;;;;;;1.52;0.70;;;14.30;64.30;;;;;;4789827;29;20056;-80
2022/06/03 03:21:26;;;;;;;2.38;0.70;;;14.30;64.40;;;;;;4802409;29;20128;-79
2022/06/03 03:24:30;;;;;;;1.30;0.77;;;14.30;64.30;;;;;;4808233;29;20054;-79
2022/06/03 03:27:12;;;;;;;1.98;0.90;;;14.30;64.40;;;;;;4793568;29;20150;-79
2022/06/03 03:29:57;;;;;;;1.20;0.68;;;14.20;64.40;;;;;;4793055;29;20051;-79
2022/06/03 03:33:00;;;;;;;1.80;0.82;;;14.20;64.50;;;;;;4802435;29;20043;-79
2022/06/03 03:35:44;;;;;;;2.05;0.80;;;14.20;64.60;;;;;;4793269;29;20043;-79
2022/06/03 03:38:51;;;;;;;1.45;0.60;;;14.10;64.60;;;;;;4788712;29;20044;-79
2022/06/03 03:41:29;;;;;;;1.48;0.65;;;14.10;64.70;;;;;;4787261;29;20071;-79
2022/06/03 03:44:08;;;;;;;1.75;0.85;;;14.10;64.80;;;;;;4772555;30;20043;-79
2022/06/03 03:46:50;;;;;;;1.00;0.52;;;14.10;64.80;;;;;;4786988;29;20460;-79
2022/06/03 03:49:52;;;;;;;2.13;0.75;;;14.10;64.80;;;;;;4786826;29;20112;-79
2022/06/03 03:52:31;;;;;;;1.17;0.68;;;14.10;64.80;;;;;;4784025;30;20055;-79
2022/06/03 03:55:26;;;;;;;2.55;0.80;;;14.10;64.80;;;;;;4798778;29;20112;-80
2022/06/03 03:58:14;;;;;;;2.13;0.88;;;14.10;64.80;;;;;;4786787;29;20421;-79
2022/06/03 04:01:01;;;;;;;1.77;1.00;;;14.10;64.90;;;;;;4804492;29;20054;-79
2022/06/03 04:03:40;;;;;;;1.23;0.63;;;14.10;64.90;;;;;;4805150;29;20142;-79
2022/06/03 04:06:44;;;;;;;3.28;1.00;;;14.10;65.00;;;;;;4788137;29;20051;-79
2022/06/03 04:09:32;;;;;;;1.90;0.75;;;14.10;65.00;;;;;;4790684;29;20063;-79
2022/06/03 04:12:13;;;;;;;1.92;0.80;;;14.00;65.10;;;;;;4786799;30;20391;-78
2022/06/03 04:15:04;;;;;;;1.73;0.93;;;14.00;65.20;;;;;;4811264;29;20051;-79
2022/06/03 04:17:53;;;;;;;1.63;0.70;;;14.00;65.20;;;;;;4774254;29;20055;-79
2022/06/03 04:20:58;;;;;;;1.50;0.70;;;14.00;65.30;;;;;;4786155;30;20394;-79
2022/06/03 04:24:03;;;;;;;1.38;0.88;;;14.00;65.40;;;;;;4772956;30;20051;-79
2022/06/03 04:26:48;;;;;;;1.38;0.63;;;13.90;65.40;;;;;;4798867;29;20051;-79
2022/06/03 04:30:04;;;;;;;2.03;0.90;;;13.90;65.50;;;;;;4786671;30;20056;-79
2022/06/03 04:32:43;;;;;;;1.52;0.82;;;13.90;65.50;;;;;;4776523;29;20108;-79
2022/06/03 04:35:26;;;;;;;1.65;0.60;;;13.90;65.70;;;;;;4774916;30;20048;-79
2022/06/03 04:38:24;;;;;;;1.70;1.00;;;13.90;65.70;;;;;;4786092;29;20635;-79
2022/06/03 04:41:16;;;;;;;1.30;0.70;;;13.90;65.70;;;;;;4785448;30;20070;-79
2022/06/03 04:44:21;;;;;;;1.42;0.70;;;13.90;65.90;;;;;;4791146;29;20052;-79
2022/06/03 04:47:06;;;;;;;2.72;0.77;;;13.90;65.80;;;;;;4785897;29;20047;-79
2022/06/03 04:50:11;;;;;;;2.70;0.95;;;13.90;66.00;;;;;;4789905;29;20059;-79
2022/06/03 04:53:28;;;;;;;1.85;1.08;;;13.90;66.10;;;;;;4784694;29;20138;-80
2022/06/03 04:56:13;;;;;;;1.83;0.90;;;13.90;66.10;;;;;;4798218;29;20051;-80
2022/06/03 04:58:43;;;;;;;2.50;1.33;;;13.90;66.00;;;;;;4798404;29;20514;-79
2022/06/03 05:01:31;;;;;;;1.33;0.88;;;14.00;66.20;;;;;;4786170;30;20070;-81
2022/06/03 05:04:20;;;;;;;2.97;0.90;;;14.00;66.10;;;;;;4770503;30;20498;-80
2022/06/03 05:06:56;;;;;;;2.33;1.00;;;14.00;66.10;;;;;;4800930;29;20058;-79
2022/06/03 05:10:00;;;;;;;1.90;0.90;;;14.10;66.10;;;;;;4785962;29;20150;-83
2022/06/03 05:12:43;;;;;;;3.08;0.93;;;14.20;66.00;;;;;;4785828;29;20142;-83
2022/06/03 05:16:10;;;;;;;1.30;0.80;;;14.20;65.90;;;;;;4785923;29;20058;-78
2022/06/03 05:18:52;;;;;;;;;;;14.30;65.90;;;;;;4752516;30;20187;-84
2022/06/03 05:21:55;;;;;;;1.90;0.85;;;14.30;65.70;;;;;;4784131;30;20353;-83
2022/06/03 05:24:34;;;;;;;3.95;1.10;;;14.40;65.60;;;;;;4763238;29;20142;-82
2022/06/03 05:27:37;;;;;;;2.53;1.10;;;14.50;65.60;;;;;;4808807;29;20075;-82
2022/06/03 05:30:28;;;;;;;2.72;1.10;;;14.60;65.60;;;;;;4789686;29;20116;-84
2022/06/03 05:33:17;;;;;;;3.35;1.00;;;14.70;65.50;;;;;;4791454;29;20043;-82
2022/06/03 05:35:51;;;;;;;3.78;1.33;;;14.70;65.30;;;;;;4802054;29;20578;-82
2022/06/03 05:38:41;;;;;;;1.38;0.70;;;14.90;65.20;;;;;;4792995;29;20159;-84
2022/06/03 05:44:25;;;;;;;2.30;1.13;;;15.10;65.00;;;;;;4808643;29;20510;-84
2022/06/03 05:47:09;;;;;;;2.55;1.10;;;15.20;64.80;;;;;;4790296;29;20043;-82
2022/06/03 05:49:57;;;;;;;2.35;1.15;;;15.30;64.70;;;;;;4796970;29;20155;-82
2022/06/03 05:52:58;;;;;;;1.55;1.02;;;15.40;64.50;;;;;;4800389;29;20104;-82
2022/06/03 05:55:44;;;;;;;1.75;0.70;;;15.50;64.30;;;;;;4780017;29;20086;-82
2022/06/03 05:58:14;;;;;;;2.42;0.85;;;15.60;64.30;;;;;;4791462;30;20051;-82
2022/06/03 06:01:10;;;;;;;2.00;1.17;;;15.70;64.20;;;;;;4791580;30;20071;-82
2022/06/03 06:03:51;;;;;;;2.03;1.25;;;15.80;64.00;;;;;;4804643;29;20425;-82
2022/06/03 06:06:51;;;;;;;1.98;1.10;;;15.90;63.90;;;;;;4798920;29;20051;-82
2022/06/03 06:09:30;;;;;;;2.63;1.10;;;15.90;63.70;;;;;;4766639;29;20078;-82
2022/06/03 06:12:11;;;;;;;2.85;1.20;;;16.00;63.60;;;;;;4791627;29;20051;-82
2022/06/03 06:15:17;;;;;;;2.27;1.43;;;16.10;63.50;;;;;;4791441;29;20520;-81
2022/06/03 06:18:01;;;;;;;1.83;1.17;;;16.20;63.30;;;;;;4772543;30;20055;-81
2022/06/03 06:20:56;;;;;;;4.15;1.58;;;16.20;63.30;;;;;;4775597;30;20134;-81
2022/06/03 06:23:45;;;;;;;1.83;1.10;;;16.30;63.20;;;;;;4776463;30;20082;-81
2022/06/03 06:26:42;;;;;;;3.93;1.33;;;16.30;63.10;;;;;;4804370;29;20050;-81
2022/06/03 06:29:43;;;;;;;2.78;1.15;;;16.40;63.00;;;;;;4781975;29;20070;-81
2022/06/03 06:32:40;;;;;;;2.20;1.20;;;16.50;63.00;;;;;;4810480;29;20058;-81
2022/06/03 06:35:53;;;;;;;2.28;0.98;;;16.50;62.80;;;;;;4790267;29;20104;-81
2022/06/03 06:38:26;;;;;;;;;;;16.60;62.70;;;;;;4803947;29;20051;-81
2022/06/03 06:41:15;;;;;;;2.83;1.40;;;16.70;62.70;;;;;;4794667;29;19961;-80
2022/06/03 06:43:50;;;;;;;2.60;1.30;;;16.70;62.60;;;;;;4792192;29;20154;-80
2022/06/03 06:46:38;;;;;;;2.30;1.13;;;16.80;62.50;;;;;;4807805;29;20440;-80
2022/06/03 06:49:26;;;;;;;2.67;1.05;;;16.90;62.40;;;;;;4799836;29;20475;-83
2022/06/03 06:52:07;;;;;;;2.60;1.20;;;17.10;62.00;;;;;;4792172;29;20073;-83
2022/06/03 06:54:52;;;;;;;4.32;1.50;;;17.10;61.80;;;;;;4788286;30;20464;-81
2022/06/03 06:57:40;;;;;;;3.50;1.25;;;17.20;61.80;;;;;;4796997;29;20058;-81
2022/06/03 07:00:27;;;;;;;1.92;1.02;;;17.30;61.70;;;;;;4803825;29;20493;-82
2022/06/03 07:03:27;;;;;;;2.53;1.33;;;17.40;61.50;;;;;;4788868;29;20047;-81
2022/06/03 07:06:06;;;;;;;3.13;1.20;;;17.60;61.40;;;;;;4798948;29;20047;-81
2022/06/03 07:08:45;;;;;;;2.20;1.30;;;17.60;61.30;;;;;;4778740;30;20051;-86
2022/06/03 07:11:14;;;;;;;2.22;1.23;;;17.80;61.10;;;;;;4806964;29;20118;-82
2022/06/03 07:13:54;;;;;;;2.15;1.27;;;17.80;60.90;;;;;;4798146;29;20079;-81
2022/06/03 07:19:52;;;;;;;1.40;0.80;;;18.00;60.60;;;;;;4789486;30;20053;-78
2022/06/03 07:22:19;;;;;;;1.90;1.00;;;18.10;60.50;;;;;;4788772;29;20043;-79
2022/06/03 07:25:25;;;;;;;1.30;0.70;;;18.30;60.30;;;;;;4788542;30;20143;-80
2022/06/03 07:28:32;;;;;;;1.70;0.77;;;18.40;59.90;;;;;;4790335;29;20503;-86
2022/06/03 07:31:31;;;;;;;2.00;1.00;;;18.50;59.80;;;;;;4796287;29;20070;-85
2022/06/03 07:34:30;;;;;;;2.25;0.98;;;18.60;59.60;;;;;;4795080;29;20083;-82
2022/06/03 07:37:02;;;;;;;1.48;0.77;;;18.70;59.50;;;;;;4792054;29;20055;-81
2022/06/03 07:40:11;;;;;;;1.70;0.80;;;18.80;59.30;;;;;;4788887;30;20103;-90
2022/06/03 07:42:47;;;;;;;2.30;1.05;;;18.90;59.30;;;;;;4784920;29;20097;-90
2022/06/03 07:45:34;;;;;;;2.60;1.30;;;18.90;59.20;;;;;;4773529;30;20051;-90
2022/06/03 07:48:04;;;;;;;1.63;0.80;;;19.10;58.90;;;;;;4804415;29;20051;-89
2022/06/03 07:50:36;;;;;;;1.85;1.00;;;19.20;58.80;;;;;;4777651;29;20142;-90
2022/06/03 07:53:21;;;;;;;1.65;0.77;;;19.20;58.60;;;;;;4802912;29;20114;-87
2022/06/03 07:55:56;;;;;;;2.88;0.95;;;19.30;58.50;;;;;;4803270;29;20059;-88
2022/06/03 07:58:25;;;;;;;2.30;1.00;;;19.50;58.30;;;;;;4805042;29;20075;-85
2022/06/03 08:00:53;;;;;;;1.30;0.57;;;19.60;58.20;;;;;;4782034;30;20372;-84
2022/06/03 08:03:26;;;;;;;1.63;0.90;;;19.70;58.00;;;;;;4788207;29;20055;-87
2022/06/03 08:06:00;;;;;;;1.55;0.85;;;19.80;57.80;;;;;;4795655;29;20086;-87
2022/06/03 08:11:31;;;;;;;2.28;0.80;;;20.00;57.50;;;;;;4773834;30;20062;-88
2022/06/03 08:14:00;;;;;;;1.20;0.57;;;20.20;57.30;;;;;;4788810;29;20074;-91
2022/06/03 08:16:40;;;;;;;2.35;0.73;;;20.20;57.30;;;;;;4789056;29;20056;-86
2022/06/03 08:19:42;;;;;;;2.80;0.80;;;20.20;57.10;;;;;;4777156;29;20086;-89
2022/06/03 08:22:12;;;;;;;;;;;20.30;57.10;;;;;;4771041;30;20058;-88
2022/06/03 08:24:55;;;;;;;1.55;0.50;;;20.30;57.10;;;;;;4778793;29;20027;-89
2022/06/03 08:27:30;;;;;;;2.13;0.57;;;20.40;57.10;;;;;;4794449;29;20051;-91
2022/06/03 08:30:17;;;;;;;1.48;0.60;;;20.50;56.90;;;;;;4797467;29;20047;-88
2022/06/03 08:33:03;;;;;;;1.17;0.68;;;20.60;56.60;;;;;;4788307;29;20057;-85
2022/06/03 08:35:35;;;;;;;1.15;0.63;;;20.80;56.30;;;;;;4787347;29;20047;-87
2022/06/03 08:38:06;;;;;;;0.95;0.50;;;20.90;56.10;;;;;;4804485;29;20055;-84
2022/06/03 08:40:48;;;;;;;2.80;0.75;;;21.00;56.00;;;;;;4786177;29;20054;-81
2022/06/03 08:43:40;;;;;;;1.15;0.50;;;21.00;55.70;;;;;;4799780;29;20047;-86
2022/06/03 08:46:26;;;;;;;1.20;0.40;;;21.10;55.60;;;;;;4786890;29;20059;-86
2022/06/03 08:49:01;;;;;;;1.80;0.50;;;21.20;55.50;;;;;;4797851;29;20057;-81
2022/06/03 08:51:50;;;;;;;1.10;0.40;;;21.30;55.40;;;;;;4797444;29;20055;-82
2022/06/03 08:54:21;;;;;;;1.63;0.40;;;21.50;55.20;;;;;;4788201;29;20065;-84
2022/06/03 08:56:51;;;;;;;1.92;0.50;;;21.60;55.10;;;;;;4788581;29;20067;-84
2022/06/03 08:59:28;;;;;;;1.85;0.70;;;21.80;54.80;;;;;;4786499;29;20102;-85
2022/06/03 09:02:04;;;;;;;2.03;0.60;;;22.00;54.60;;;;;;4792351;29;20047;-85
2022/06/03 09:04:39;;;;;;;0.70;0.40;;;22.00;54.00;;;;;;4805787;29;20051;-84
2022/06/03 09:07:34;;;;;;;1.27;0.80;;;22.00;54.10;;;;;;4805779;29;20050;-83
2022/06/03 09:10:07;;;;;;;0.68;0.50;;;22.00;53.20;;;;;;4786083;29;20055;-81
2022/06/03 09:12:47;;;;;;;1.05;0.57;;;22.00;53.60;;;;;;4816481;29;20566;-82
2022/06/03 09:15:22;;;;;;;0.95;0.40;;;22.00;53.40;;;;;;4791164;29;20118;-84
2022/06/03 09:18:17;;;;;;;1.42;0.70;;;22.10;53.30;;;;;;4815619;29;20054;-85
2022/06/03 09:21:03;;;;;;;1.40;0.68;;;22.20;53.10;;;;;;4802205;29;20063;-77
2022/06/03 09:23:37;;;;;;;0.70;0.40;;;22.40;52.50;;;;;;4785739;29;20051;-79
2022/06/03 09:26:09;;;;;;;1.83;0.55;;;22.40;52.40;;;;;;4785067;29;20754;-79
2022/06/03 09:28:36;;;;;;;0.70;0.47;;;22.50;52.30;;;;;;4785349;29;20050;-81
2022/06/03 09:31:10;;;;;;;0.50;0.38;;;22.60;52.10;;;;;;4785519;29;20051;-80
2022/06/03 09:33:54;;;;;;;1.98;0.60;;;22.70;52.00;;;;;;4792183;29;20059;-79
2022/06/03 09:36:23;;;;;;;1.70;0.60;;;22.80;51.70;;;;;;4800738;29;20055;-79
2022/06/03 09:39:11;;;;;;;1.48;0.47;;;22.80;51.50;;;;;;4785971;29;20624;-80
2022/06/03 09:41:42;;;;;;;1.30;0.43;;;22.90;51.40;;;;;;4798474;29;20055;-79
2022/06/03 09:44:12;;;;;;;1.33;0.60;;;22.90;51.00;;;;;;4785935;29;20120;-78
2022/06/03 09:46:41;;;;;;;1.10;0.50;;;22.90;50.80;;;;;;4785575;29;20130;-82
2022/06/03 09:49:09;;;;;;;1.20;0.57;;;22.90;51.00;;;;;;4783949;29;20126;-86
2022/06/03 09:51:56;;;;;;;1.05;0.60;;;23.00;51.30;;;;;;4771287;30;20089;-87
2022/06/03 09:54:41;;;;;;;0.88;0.50;;;23.10;50.50;;;;;;4781635;29;20062;-86
2022/06/03 09:57:31;;;;;;;0.75;0.47;;;23.30;50.20;;;;;;4801600;29;20062;-86
2022/06/03 10:00:14;;;;;;;0.45;0.30;;;23.50;49.90;;;;;;4771535;30;20063;-86
2022/06/03 10:02:45;;;;;;;0.57;0.32;;;23.70;49.60;;;;;;4786354;29;20141;-85
2022/06/03 10:05:16;;;;;;;3.63;0.52;;;23.80;49.30;;;;;;4786195;30;20062;-87
2022/06/03 10:07:45;;;;;;;1.17;0.40;;;23.90;48.80;;;;;;4801336;29;20063;-85
2022/06/03 10:13:03;;;;;;;2.70;0.60;;;23.90;48.50;;;;;;4800344;29;20422;-87
2022/06/03 10:15:42;;;;;;;0.93;0.50;;;23.80;48.20;;;;;;4790782;29;20047;-85
2022/06/03 10:18:31;;;;;;;1.55;0.90;;;23.80;48.30;;;;;;4788287;29;20090;-88
2022/06/03 10:21:06;;;;;;;1.77;0.90;;;23.70;48.10;;;;;;4800869;29;20047;-85
2022/06/03 10:23:42;;;;;;;1.50;0.65;;;23.50;48.10;;;;;;4791542;30;20403;-85
2022/06/03 10:26:27;;;;;;;0.82;0.50;;;23.60;48.10;;;;;;4785544;29;21525;-81
2022/06/03 10:28:57;;;;;;;0.95;0.30;;;23.70;47.80;;;;;;4802554;29;20047;-86
2022/06/03 10:31:30;;;;;;;0.88;0.52;;;23.80;47.60;;;;;;4799920;29;20051;-85
2022/06/03 10:34:06;;;;;;;1.20;0.52;;;24.00;46.80;;;;;;4780505;29;20078;-85
2022/06/03 10:36:37;;;;;;;0.98;0.40;;;24.00;46.50;;;;;;4805633;29;20047;-85
2022/06/03 10:39:06;;;;;;;0.45;0.30;;;24.00;46.50;;;;;;4772054;30;20051;-84
2022/06/03 10:41:39;;;;;;;0.82;0.30;;;24.10;46.50;;;;;;4803370;29;20051;-85
2022/06/03 10:44:19;;;;;;;0.93;0.50;;;24.20;46.30;;;;;;4805012;29;20153;-85
2022/06/03 10:47:02;;;;;;;0.65;0.38;;;24.40;46.70;;;;;;4787446;29;20063;-84
2022/06/03 10:49:32;;;;;;;1.30;0.50;;;24.60;46.00;;;;;;4788138;29;20063;-85
2022/06/03 11:03:28;;;;;;;2.85;0.65;;;24.70;45.10;;;;;;4798014;29;20104;-83
2022/06/03 11:05:56;;;;;;;0.88;0.40;;;24.60;44.80;;;;;;4786642;30;20108;-83
2022/06/03 11:08:23;;;;;;;2.50;0.60;;;24.70;44.80;;;;;;4801467;29;20056;-84
2022/06/03 11:10:55;;;;;;;1.23;0.40;;;24.60;44.70;;;;;;4790396;29;20051;-83
2022/06/03 11:13:32;;;;;;;1.85;0.50;;;24.70;44.80;;;;;;4771363;30;20113;-77
2022/06/03 11:16:19;;;;;;;1.13;0.40;;;24.90;44.50;;;;;;4784522;29;20108;-78
2022/06/03 11:18:50;;;;;;;0.95;0.40;;;25.10;44.10;;;;;;4770872;29;20108;-76
2022/06/03 11:21:25;;;;;;;;;;;25.20;43.80;;;;;;4784793;29;20059;-77
2022/06/03 11:23:53;;;;;;;;;;;25.20;43.70;;;;;;4794265;29;19926;-77
2022/06/03 11:26:22;;;;;;;0.95;0.40;;;25.20;43.90;;;;;;4803695;29;19931;-78
2022/06/03 11:28:55;;;;;;;1.20;0.40;;;25.20;43.70;;;;;;4770164;30;20047;-79
2022/06/03 11:31:31;;;;;;;0.90;0.40;;;25.30;43.40;;;;;;4785405;29;20059;-79
2022/06/03 11:34:04;;;;;;;0.63;0.40;;;25.40;43.30;;;;;;4785485;30;20059;-79
2022/06/03 11:36:36;;;;;;;1.05;0.40;;;25.50;42.90;;;;;;4800427;29;20047;-78
2022/06/03 11:39:16;;;;;;;;;;;25.60;42.70;;;;;;4801840;29;20134;-79
2022/06/03 11:42:32;;;;;;;1.15;0.40;;;25.70;42.60;;;;;;4800615;29;19932;-79
2022/06/03 11:45:17;;;;;;;0.68;0.40;;;25.80;42.30;;;;;;4785465;29;20142;-79
2022/06/03 11:47:59;;;;;;;0.90;0.40;;;26.00;42.10;;;;;;4797442;29;20158;-79
2022/06/03 11:50:28;;;;;;;0.90;0.35;;;26.40;41.40;;;;;;4795534;29;20086;-78
2022/06/03 11:52:57;;;;;;;0.75;0.40;;;26.50;41.20;;;;;;4787654;30;20051;-78
2022/06/03 11:55:27;;;;;;;0.73;0.40;;;26.90;40.90;;;;;;4787036;29;20161;-78
2022/06/03 11:58:22;;;;;;;0.70;0.30;;;27.20;40.60;;;;;;4801762;29;20059;-78
2022/06/03 12:00:56;;;;;;;0.80;0.30;;;27.60;40.20;;;;;;4793044;29;20062;-78
2022/06/03 12:03:31;;;;;;;2.05;0.40;;;27.90;40.10;;;;;;4800374;29;20201;-78
2022/06/03 12:06:18;;;;;;;0.95;0.45;;;28.20;39.70;;;;;;4783351;29;20064;-78
2022/06/03 12:09:22;;;;;;;1.15;0.40;;;28.60;39.50;;;;;;4799634;29;20047;-78
2022/06/03 12:15:40;;;;;;;0.93;0.40;;;29.60;38.90;;;;;;4769855;30;20055;-78
2022/06/03 12:18:07;;;;;;;;;;;30.10;38.30;;;;;;4785714;29;20494;-78
2022/06/03 12:20:37;;;;;;;1.45;0.40;;;29.90;38.10;;;;;;4784873;30;20258;-79
2022/06/03 12:23:13;;;;;;;0.82;0.50;;;29.70;38.40;;;;;;4769265;30;20055;-77
2022/06/03 12:25:40;;;;;;;0.80;0.47;;;29.70;38.10;;;;;;4784104;30;20055;-79
2022/06/03 12:28:27;;;;;;;0.68;0.40;;;29.90;38.00;;;;;;4785126;30;20464;-86
2022/06/03 12:30:59;;;;;;;0.70;0.35;;;30.20;37.80;;;;;;4804471;29;20464;-87
2022/06/03 12:33:49;;;;;;;0.57;0.30;;;30.50;37.60;;;;;;4790589;29;20047;-81
2022/06/03 12:36:35;;;;;;;0.98;0.30;;;30.50;37.50;;;;;;4774100;29;20515;-82
2022/06/03 12:39:03;;;;;;;1.55;0.50;;;30.70;37.30;;;;;;4793490;29;20498;-83
2022/06/03 12:41:46;;;;;;;2.55;0.40;;;30.60;37.10;;;;;;4789718;29;20051;-82
2022/06/03 12:44:47;;;;;;;0.47;0.30;;;30.70;37.20;;;;;;4793797;29;20039;-82
2022/06/03 12:47:35;;;;;;;0.88;0.40;;;30.80;36.90;;;;;;4791357;29;20055;-82
2022/06/03 12:50:05;;;;;;;0.95;0.30;;;30.60;35.90;;;;;;4786513;29;20079;-82
2022/06/03 12:52:35;;;;;;;0.73;0.40;;;30.30;36.70;;;;;;4786461;30;20067;-82
2022/06/03 12:55:14;;;;;;;1.05;0.40;;;29.90;36.70;;;;;;4786320;29;20502;-81
2022/06/03 12:58:02;;;;;;;0.52;0.40;;;29.80;36.60;;;;;;4786358;29;20067;-85
2022/06/03 13:00:51;;;;;;;0.60;0.50;;;29.60;36.30;;;;;;4774294;30;20502;-83
2022/06/03 13:03:20;;;;;;;0.60;0.40;;;29.50;36.90;;;;;;4786057;30;20120;-81
2022/06/03 13:05:53;;;;;;;0.75;0.40;;;29.10;36.30;;;;;;4812976;29;20043;-87
2022/06/03 13:08:29;;;;;;;0.95;0.50;;;28.90;36.60;;;;;;4786000;29;20055;-84
2022/06/03 13:11:03;;;;;;;0.88;0.40;;;29.00;37.20;;;;;;4793669;29;20502;-84
2022/06/03 13:13:33;;;;;;;0.77;0.40;;;29.20;36.50;;;;;;4804931;29;20048;-82
2022/06/03 13:16:19;;;;;;;0.60;0.35;;;29.60;36.20;;;;;;4802329;29;20078;-83
2022/06/03 13:18:49;;;;;;;0.73;0.40;;;29.90;36.00;;;;;;4801221;29;20096;-82
2022/06/03 13:21:27;;;;;;;0.85;0.32;;;30.20;35.70;;;;;;4787482;29;20040;-85
2022/06/03 13:23:58;;;;;;;0.52;0.40;;;30.60;35.70;;;;;;4788793;29;20104;-88
2022/06/03 13:26:30;;;;;;;0.55;0.30;;;30.80;35.30;;;;;;4802246;29;20053;-89
2022/06/03 13:29:07;;;;;;;0.57;0.40;;;30.60;35.50;;;;;;4802426;29;20055;-90
2022/06/03 13:31:41;;;;;;;0.93;0.40;;;30.60;35.40;;;;;;4799191;29;20418;-85
2022/06/03 13:34:11;;;;;;;0.90;0.32;;;30.20;35.60;;;;;;4801602;29;20066;-87
2022/06/03 13:36:46;;;;;;;0.75;0.40;;;30.20;35.60;;;;;;4786322;30;20062;-86
2022/06/03 13:39:28;;;;;;;1.60;0.30;;;30.40;35.50;;;;;;4801475;29;20152;-89
2022/06/03 13:44:53;;;;;;;0.40;0.30;;;31.60;35.60;;;;;;4787492;30;20052;-87
2022/06/03 13:47:22;;;;;;;0.52;0.30;;;32.10;34.60;;;;;;4786259;29;20108;-85
2022/06/03 13:49:57;;;;;;;0.80;0.30;;;32.50;34.30;;;;;;4801793;29;20063;-89
2022/06/03 13:52:28;;;;;;;0.60;0.30;;;32.70;33.80;;;;;;4790202;29;20591;-88
2022/06/03 13:55:07;;;;;;;1.45;0.30;;;32.30;34.60;;;;;;4778334;29;20108;-87
2022/06/03 13:57:36;;;;;;;0.47;0.22;;;32.40;34.10;;;;;;4801211;29;20047;-87
2022/06/03 14:00:26;;;;;;;0.40;0.30;;;32.30;34.20;;;;;;4789194;29;20059;-86
2022/06/03 14:03:16;;;;;;;0.55;0.30;;;32.30;33.90;;;;;;4789862;30;20051;-85
2022/06/03 14:05:54;;;;;;;0.50;0.40;;;32.10;33.90;;;;;;4790279;29;20055;-86
2022/06/03 14:08:30;;;;;;;0.90;0.47;;;31.50;34.00;;;;;;4795685;29;20058;-85
2022/06/03 14:11:01;;;;;;;0.85;0.43;;;31.00;34.30;;;;;;4815380;29;20061;-80
2022/06/03 14:13:41;;;;;;;1.45;0.45;;;30.90;34.40;;;;;;4801768;29;20061;-80
2022/06/03 14:16:14;;;;;;;0.77;0.30;;;30.60;34.20;;;;;;4797173;29;20525;-79
2022/06/03 14:18:50;;;;;;;0.77;0.45;;;30.20;34.30;;;;;;4792894;29;20047;-79
2022/06/03 14:21:49;;;;;;;0.40;0.25;;;30.00;34.60;;;;;;4804653;29;20050;-78
2022/06/03 14:24:48;;;;;;;0.50;0.30;;;30.20;34.50;;;;;;4789175;29;20119;-78
2022/06/03 14:27:55;;;;;;;0.38;0.20;;;30.20;34.40;;;;;;4788768;30;20105;-76
2022/06/03 14:30:54;;;;;;;0.50;0.25;;;29.80;34.90;;;;;;4752869;29;20111;-76
2022/06/03 14:33:23;;;;;;;0.73;0.20;;;29.70;35.20;;;;;;4803152;29;20056;-80
2022/06/03 14:35:56;;;;;;;0.30;0.25;;;29.60;35.10;;;;;;4787691;29;20055;-76
2022/06/03 14:38:47;;;;;;;0.40;0.28;;;29.50;35.10;;;;;;4791235;29;20126;-76
2022/06/03 14:41:32;;;;;;;0.55;0.30;;;29.70;35.00;;;;;;4785790;29;20047;-81
2022/06/03 14:44:01;;;;;;;2.08;0.50;;;29.90;34.80;;;;;;4806748;29;20055;-78